sensor_id;sensor_type;location;lat;lon;timestamp;noise_LAeq;noise_LA_min;noise_LA_max;noise_LA01;noise_LA95
66458;Laerm;56835;52.198;4.826;2023-06-10T00:00:05;50.43;49.26;51.49;;
66458;Laerm;56835;52.198;4.826;2023-06-10T00:00:17;50.43;49.34;51.38;;
66458;Laerm;56835;52.198;4.826;2023-06-10T00:00:27;50.38;49.19;51.49;;
66458;Laerm;56835;52.198;4.826;2023-06-10T00:00:37;50.44;49.11;51.82;;
66458;Laerm;56835;52.198;4.826;2023-06-10T00:00:48;50.41;49.11;51.58;;
66458;Laerm;56835;52.198;4.826;2023-06-10T00:00:58;50.41;49.25;51.79;;
66458;Laerm;56835;52.198;4.826;2023-06-10T00:01:09;50.40;49.22;51.37;;
66458;Laerm;56835;52.198;4.826;2023-06-10T00:01:19;50.45;49.30;51.68;;
66458;Laerm;56835;52.198;4.826;2023-06-10T00:01:30;50.43;49.24;51.60;;
66458;Laerm;56835;52.198;4.826;2023-06-10T00:01:40;50.38;49.19;51.68;;
66458;Laerm;56835;52.198;4.826;2023-06-10T00:01:51;50.41;49.36;51.60;;
66458;Laerm;56835;52.198;4.826;2023-06-10T00:02:05;50.42;49.21;51.73;;
66458;Laerm;56835;52.198;4.826;2023-06-10T00:02:15;50.46;49.18;51.61;;
66458;Laerm;56835;52.198;4.826;2023-06-10T00:02:27;50.42;49.45;51.59;;
66458;Laerm;56835;52.198;4.826;2023-06-10T00:02:37;50.47;49.31;51.84;;
66458;Laerm;56835;52.198;4.826;2023-06-10T00:02:47;50.50;49.42;51.70;;
66458;Laerm;56835;52.198;4.826;2023-06-10T00:02:58;50.45;49.31;51.58;;
66458;Laerm;56835;52.198;4.826;2023-06-10T00:03:09;50.45;49.33;51.48;;
66458;Laerm;56835;52.198;4.826;2023-06-10T00:03:19;50.43;49.20;51.62;;
66458;Laerm;56835;52.198;4.826;2023-06-10T00:03:30;50.44;49.36;51.62;;
66458;Laerm;56835;52.198;4.826;2023-06-10T00:03:40;50.43;49.21;51.84;;
66458;Laerm;56835;52.198;4.826;2023-06-10T00:03:51;50.46;49.34;51.60;;
66458;Laerm;56835;52.198;4.826;2023-06-10T00:04:04;50.47;49.26;51.57;;
66458;Laerm;56835;52.198;4.826;2023-06-10T00:04:14;50.43;49.37;51.62;;
66458;Laerm;56835;52.198;4.826;2023-06-10T00:04:26;50.43;49.35;51.40;;
66458;Laerm;56835;52.198;4.826;2023-06-10T00:04:37;50.48;49.27;51.64;;
66458;Laerm;56835;52.198;4.826;2023-06-10T00:04:47;50.47;49.20;51.57;;
66458;Laerm;56835;52.198;4.826;2023-06-10T00:04:57;50.43;49.19;51.76;;
66458;Laerm;56835;52.198;4.826;2023-06-10T00:05:08;50.44;48.75;51.51;;
66458;Laerm;56835;52.198;4.826;2023-06-10T00:05:19;50.44;49.35;51.83;;
66458;Laerm;56835;52.198;4.826;2023-06-10T00:05:31;50.49;49.34;51.66;;
66458;Laerm;56835;52.198;4.826;2023-06-10T00:05:41;50.42;49.17;51.81;;
66458;Laerm;56835;52.198;4.826;2023-06-10T00:05:52;50.46;49.42;51.56;;
66458;Laerm;56835;52.198;4.826;2023-06-10T00:06:03;50.45;49.18;51.66;;
66458;Laerm;56835;52.198;4.826;2023-06-10T00:06:13;50.43;49.25;51.57;;
66458;Laerm;56835;52.198;4.826;2023-06-10T00:06:23;50.44;48.57;51.45;;
66458;Laerm;56835;52.198;4.826;2023-06-10T00:06:34;50.51;49.24;51.54;;
66458;Laerm;56835;52.198;4.826;2023-06-10T00:06:47;50.47;49.36;51.59;;
66458;Laerm;56835;52.198;4.826;2023-06-10T00:06:59;50.43;49.05;51.68;;
66458;Laerm;56835;52.198;4.826;2023-06-10T00:07:10;50.51;49.33;51.88;;
66458;Laerm;56835;52.198;4.826;2023-06-10T00:07:20;50.45;49.06;51.66;;
66458;Laerm;56835;52.198;4.826;2023-06-10T00:07:30;50.44;49.32;51.71;;
66458;Laerm;56835;52.198;4.826;2023-06-10T00:07:41;50.48;49.20;51.67;;
66458;Laerm;56835;52.198;4.826;2023-06-10T00:07:51;50.47;49.41;51.48;;
66458;Laerm;56835;52.198;4.826;2023-06-10T00:08:05;50.49;49.01;51.72;;
66458;Laerm;56835;52.198;4.826;2023-06-10T00:08:18;50.44;49.37;51.64;;
66458;Laerm;56835;52.198;4.826;2023-06-10T00:08:29;50.43;49.21;51.58;;
66458;Laerm;56835;52.198;4.826;2023-06-10T00:08:41;50.48;49.27;51.51;;
66458;Laerm;56835;52.198;4.826;2023-06-10T00:08:52;50.46;49.23;51.36;;
66458;Laerm;56835;52.198;4.826;2023-06-10T00:09:04;50.48;49.45;51.90;;
66458;Laerm;56835;52.198;4.826;2023-06-10T00:09:24;50.49;48.98;52.15;;
66458;Laerm;56835;52.198;4.826;2023-06-10T00:09:36;50.52;49.31;51.74;;
66458;Laerm;56835;52.198;4.826;2023-06-10T00:09:48;50.49;49.03;51.55;;
66458;Laerm;56835;52.198;4.826;2023-06-10T00:09:59;50.45;49.22;51.51;;
66458;Laerm;56835;52.198;4.826;2023-06-10T00:10:10;50.49;49.16;51.82;;
66458;Laerm;56835;52.198;4.826;2023-06-10T00:10:20;50.45;48.96;51.83;;
66458;Laerm;56835;52.198;4.826;2023-06-10T00:10:30;50.42;49.53;51.32;;
66458;Laerm;56835;52.198;4.826;2023-06-10T00:10:41;50.49;49.42;51.52;;
66458;Laerm;56835;52.198;4.826;2023-06-10T00:10:51;50.51;49.40;51.48;;
66458;Laerm;56835;52.198;4.826;2023-06-10T00:11:01;50.51;49.42;51.56;;
66458;Laerm;56835;52.198;4.826;2023-06-10T00:11:12;50.50;49.31;51.50;;
66458;Laerm;56835;52.198;4.826;2023-06-10T00:11:22;50.52;49.17;51.60;;
66458;Laerm;56835;52.198;4.826;2023-06-10T00:11:32;50.46;49.26;51.48;;
66458;Laerm;56835;52.198;4.826;2023-06-10T00:11:42;50.50;49.48;51.64;;
66458;Laerm;56835;52.198;4.826;2023-06-10T00:11:53;50.51;49.32;51.50;;
66458;Laerm;56835;52.198;4.826;2023-06-10T00:12:03;50.52;49.00;51.87;;
66458;Laerm;56835;52.198;4.826;2023-06-10T00:12:14;50.52;49.24;51.66;;
66458;Laerm;56835;52.198;4.826;2023-06-10T00:12:27;50.52;49.33;51.86;;
66458;Laerm;56835;52.198;4.826;2023-06-10T00:12:39;50.53;49.03;51.57;;
66458;Laerm;56835;52.198;4.826;2023-06-10T00:12:50;50.54;49.49;51.74;;
66458;Laerm;56835;52.198;4.826;2023-06-10T00:13:04;50.57;49.26;51.70;;
66458;Laerm;56835;52.198;4.826;2023-06-10T00:13:15;50.51;49.39;51.71;;
66458;Laerm;56835;52.198;4.826;2023-06-10T00:13:26;50.51;49.49;51.74;;
66458;Laerm;56835;52.198;4.826;2023-06-10T00:13:36;50.48;49.26;51.83;;
66458;Laerm;56835;52.198;4.826;2023-06-10T00:13:47;50.52;49.17;51.83;;
66458;Laerm;56835;52.198;4.826;2023-06-10T00:13:57;50.53;49.30;51.73;;
66458;Laerm;56835;52.198;4.826;2023-06-10T00:14:07;50.54;49.40;51.66;;
66458;Laerm;56835;52.198;4.826;2023-06-10T00:14:18;50.56;49.36;51.49;;
66458;Laerm;56835;52.198;4.826;2023-06-10T00:14:29;50.57;49.49;51.61;;
66458;Laerm;56835;52.198;4.826;2023-06-10T00:14:39;50.51;49.40;51.81;;
66458;Laerm;56835;52.198;4.826;2023-06-10T00:14:51;50.55;49.40;51.69;;
66458;Laerm;56835;52.198;4.826;2023-06-10T00:15:06;50.54;49.39;51.95;;
66458;Laerm;56835;52.198;4.826;2023-06-10T00:15:17;50.53;49.21;51.82;;
66458;Laerm;56835;52.198;4.826;2023-06-10T00:15:27;50.54;49.57;51.54;;
66458;Laerm;56835;52.198;4.826;2023-06-10T00:15:37;50.54;49.31;51.95;;
66458;Laerm;56835;52.198;4.826;2023-06-10T00:15:48;50.61;49.47;51.56;;
66458;Laerm;56835;52.198;4.826;2023-06-10T00:15:58;50.55;49.44;51.64;;
66458;Laerm;56835;52.198;4.826;2023-06-10T00:16:08;50.52;49.43;51.60;;
66458;Laerm;56835;52.198;4.826;2023-06-10T00:16:18;50.55;49.40;51.47;;
66458;Laerm;56835;52.198;4.826;2023-06-10T00:16:29;50.58;49.19;51.53;;
66458;Laerm;56835;52.198;4.826;2023-06-10T00:16:40;50.58;49.50;52.03;;
66458;Laerm;56835;52.198;4.826;2023-06-10T00:16:50;50.58;49.24;51.68;;
66458;Laerm;56835;52.198;4.826;2023-06-10T00:17:02;50.61;49.17;51.65;;
66458;Laerm;56835;52.198;4.826;2023-06-10T00:17:12;50.61;49.60;51.60;;
66458;Laerm;56835;52.198;4.826;2023-06-10T00:17:22;50.62;49.41;51.79;;
66458;Laerm;56835;52.198;4.826;2023-06-10T00:17:33;50.64;49.46;51.83;;
66458;Laerm;56835;52.198;4.826;2023-06-10T00:17:44;50.57;48.92;52.01;;
66458;Laerm;56835;52.198;4.826;2023-06-10T00:17:54;50.63;49.38;51.70;;
66458;Laerm;56835;52.198;4.826;2023-06-10T00:18:05;50.58;49.41;51.77;;
66458;Laerm;56835;52.198;4.826;2023-06-10T00:18:15;50.66;49.51;51.98;;
66458;Laerm;56835;52.198;4.826;2023-06-10T00:18:25;50.65;49.55;52.01;;
66458;Laerm;56835;52.198;4.826;2023-06-10T00:18:36;50.61;49.23;51.66;;
66458;Laerm;56835;52.198;4.826;2023-06-10T00:18:49;50.56;49.05;51.84;;
66458;Laerm;56835;52.198;4.826;2023-06-10T00:19:01;50.61;49.52;51.72;;
66458;Laerm;56835;52.198;4.826;2023-06-10T00:19:12;50.64;49.36;52.31;;
66458;Laerm;56835;52.198;4.826;2023-06-10T00:19:25;50.65;49.43;51.97;;
66458;Laerm;56835;52.198;4.826;2023-06-10T00:19:40;50.63;49.40;51.58;;
66458;Laerm;56835;52.198;4.826;2023-06-10T00:19:51;50.61;49.39;51.59;;
66458;Laerm;56835;52.198;4.826;2023-06-10T00:20:03;50.64;49.53;51.89;;
66458;Laerm;56835;52.198;4.826;2023-06-10T00:20:19;50.67;49.57;51.96;;
66458;Laerm;56835;52.198;4.826;2023-06-10T00:20:31;50.63;49.19;51.94;;
66458;Laerm;56835;52.198;4.826;2023-06-10T00:20:42;50.69;49.43;51.91;;
66458;Laerm;56835;52.198;4.826;2023-06-10T00:20:52;50.67;49.71;52.22;;
66458;Laerm;56835;52.198;4.826;2023-06-10T00:21:05;50.71;49.43;52.00;;
66458;Laerm;56835;52.198;4.826;2023-06-10T00:21:15;50.66;49.51;52.10;;
66458;Laerm;56835;52.198;4.826;2023-06-10T00:21:26;50.67;49.18;52.01;;
66458;Laerm;56835;52.198;4.826;2023-06-10T00:21:37;50.62;49.47;51.80;;
66458;Laerm;56835;52.198;4.826;2023-06-10T00:21:50;50.70;49.35;51.75;;
66458;Laerm;56835;52.198;4.826;2023-06-10T00:22:01;50.70;49.24;51.86;;
66458;Laerm;56835;52.198;4.826;2023-06-10T00:22:11;50.69;49.42;51.74;;
66458;Laerm;56835;52.198;4.826;2023-06-10T00:22:22;50.69;49.52;52.09;;
66458;Laerm;56835;52.198;4.826;2023-06-10T00:22:32;50.65;49.63;51.92;;
66458;Laerm;56835;52.198;4.826;2023-06-10T00:22:42;50.69;49.39;52.00;;
66458;Laerm;56835;52.198;4.826;2023-06-10T00:22:56;50.72;49.43;51.78;;
66458;Laerm;56835;52.198;4.826;2023-06-10T00:23:07;50.70;49.54;51.90;;
66458;Laerm;56835;52.198;4.826;2023-06-10T00:23:18;50.73;49.61;51.88;;
66458;Laerm;56835;52.198;4.826;2023-06-10T00:23:29;50.73;49.61;51.79;;
66458;Laerm;56835;52.198;4.826;2023-06-10T00:23:41;50.77;49.49;52.38;;
66458;Laerm;56835;52.198;4.826;2023-06-10T00:23:51;50.74;49.50;51.80;;
66458;Laerm;56835;52.198;4.826;2023-06-10T00:24:01;50.67;49.32;51.61;;
66458;Laerm;56835;52.198;4.826;2023-06-10T00:24:15;50.75;49.26;52.03;;
66458;Laerm;56835;52.198;4.826;2023-06-10T00:24:25;50.74;49.67;51.72;;
66458;Laerm;56835;52.198;4.826;2023-06-10T00:24:36;50.74;49.64;51.75;;
66458;Laerm;56835;52.198;4.826;2023-06-10T00:24:46;50.75;49.24;51.97;;
66458;Laerm;56835;52.198;4.826;2023-06-10T00:24:57;50.78;49.55;51.81;;
66458;Laerm;56835;52.198;4.826;2023-06-10T00:25:08;50.73;49.47;51.81;;
66458;Laerm;56835;52.198;4.826;2023-06-10T00:25:19;50.76;49.67;51.97;;
66458;Laerm;56835;52.198;4.826;2023-06-10T00:25:29;50.76;49.56;52.07;;
66458;Laerm;56835;52.198;4.826;2023-06-10T00:25:39;50.77;49.64;52.32;;
66458;Laerm;56835;52.198;4.826;2023-06-10T00:25:50;50.79;49.58;52.00;;
66458;Laerm;56835;52.198;4.826;2023-06-10T00:26:00;50.79;49.45;52.09;;
66458;Laerm;56835;52.198;4.826;2023-06-10T00:26:10;50.79;49.71;52.04;;
66458;Laerm;56835;52.198;4.826;2023-06-10T00:26:21;50.81;49.76;52.01;;
66458;Laerm;56835;52.198;4.826;2023-06-10T00:26:32;50.75;49.48;52.23;;
66458;Laerm;56835;52.198;4.826;2023-06-10T00:26:42;50.80;49.60;51.94;;
66458;Laerm;56835;52.198;4.826;2023-06-10T00:26:53;50.78;49.30;51.76;;
66458;Laerm;56835;52.198;4.826;2023-06-10T00:27:03;50.76;49.68;51.94;;
66458;Laerm;56835;52.198;4.826;2023-06-10T00:27:13;50.84;49.84;52.50;;
66458;Laerm;56835;52.198;4.826;2023-06-10T00:27:24;50.82;49.50;51.95;;
66458;Laerm;56835;52.198;4.826;2023-06-10T00:27:34;50.82;49.69;52.01;;
66458;Laerm;56835;52.198;4.826;2023-06-10T00:27:45;50.83;49.43;51.94;;
66458;Laerm;56835;52.198;4.826;2023-06-10T00:27:55;50.84;49.35;51.90;;
66458;Laerm;56835;52.198;4.826;2023-06-10T00:28:05;50.85;49.56;52.12;;
66458;Laerm;56835;52.198;4.826;2023-06-10T00:28:15;50.79;49.50;51.98;;
66458;Laerm;56835;52.198;4.826;2023-06-10T00:28:26;50.87;49.49;51.95;;
66458;Laerm;56835;52.198;4.826;2023-06-10T00:28:36;50.83;49.67;51.98;;
66458;Laerm;56835;52.198;4.826;2023-06-10T00:28:46;50.81;49.62;51.85;;
66458;Laerm;56835;52.198;4.826;2023-06-10T00:28:56;50.86;49.74;52.24;;
66458;Laerm;56835;52.198;4.826;2023-06-10T00:29:07;50.86;49.51;52.31;;
66458;Laerm;56835;52.198;4.826;2023-06-10T00:29:17;50.83;49.83;52.02;;
66458;Laerm;56835;52.198;4.826;2023-06-10T00:29:27;50.84;49.72;51.87;;
66458;Laerm;56835;52.198;4.826;2023-06-10T00:29:38;50.78;49.67;51.96;;
66458;Laerm;56835;52.198;4.826;2023-06-10T00:29:49;50.91;49.75;52.21;;
66458;Laerm;56835;52.198;4.826;2023-06-10T00:29:59;50.87;49.79;51.85;;
66458;Laerm;56835;52.198;4.826;2023-06-10T00:30:09;50.84;49.37;52.39;;
66458;Laerm;56835;52.198;4.826;2023-06-10T00:30:20;50.82;49.46;51.89;;
66458;Laerm;56835;52.198;4.826;2023-06-10T00:30:31;50.86;49.56;51.95;;
66458;Laerm;56835;52.198;4.826;2023-06-10T00:30:41;50.91;49.78;52.16;;
66458;Laerm;56835;52.198;4.826;2023-06-10T00:30:51;50.89;49.41;52.27;;
66458;Laerm;56835;52.198;4.826;2023-06-10T00:31:02;50.88;49.57;52.21;;
66458;Laerm;56835;52.198;4.826;2023-06-10T00:31:14;50.89;49.78;52.31;;
66458;Laerm;56835;52.198;4.826;2023-06-10T00:31:24;50.91;49.86;51.93;;
66458;Laerm;56835;52.198;4.826;2023-06-10T00:31:37;51.67;49.57;55.96;;
66458;Laerm;56835;52.198;4.826;2023-06-10T00:31:47;52.16;49.78;56.25;;
66458;Laerm;56835;52.198;4.826;2023-06-10T00:31:57;51.72;49.48;55.68;;
66458;Laerm;56835;52.198;4.826;2023-06-10T00:32:08;50.83;49.70;51.92;;
66458;Laerm;56835;52.198;4.826;2023-06-10T00:32:19;50.86;49.39;52.27;;
66458;Laerm;56835;52.198;4.826;2023-06-10T00:32:29;50.89;49.75;51.92;;
66458;Laerm;56835;52.198;4.826;2023-06-10T00:32:40;50.88;49.78;52.03;;
66458;Laerm;56835;52.198;4.826;2023-06-10T00:32:50;50.86;49.80;51.85;;
66458;Laerm;56835;52.198;4.826;2023-06-10T00:33:00;50.84;49.68;51.91;;
66458;Laerm;56835;52.198;4.826;2023-06-10T00:33:10;50.84;49.81;52.31;;
66458;Laerm;56835;52.198;4.826;2023-06-10T00:33:21;50.85;49.43;52.04;;
66458;Laerm;56835;52.198;4.826;2023-06-10T00:33:31;50.86;49.74;51.95;;
66458;Laerm;56835;52.198;4.826;2023-06-10T00:33:41;50.85;49.39;52.25;;
66458;Laerm;56835;52.198;4.826;2023-06-10T00:33:52;50.88;49.86;52.08;;
66458;Laerm;56835;52.198;4.826;2023-06-10T00:34:02;50.85;49.77;52.34;;
66458;Laerm;56835;52.198;4.826;2023-06-10T00:34:12;50.91;49.35;52.21;;
66458;Laerm;56835;52.198;4.826;2023-06-10T00:34:23;50.88;49.44;51.82;;
66458;Laerm;56835;52.198;4.826;2023-06-10T00:34:33;50.89;49.46;51.87;;
66458;Laerm;56835;52.198;4.826;2023-06-10T00:34:43;50.91;49.32;52.11;;
66458;Laerm;56835;52.198;4.826;2023-06-10T00:34:54;50.90;49.57;52.08;;
66458;Laerm;56835;52.198;4.826;2023-06-10T00:35:04;50.90;49.31;52.20;;
66458;Laerm;56835;52.198;4.826;2023-06-10T00:35:15;50.88;49.62;52.28;;
66458;Laerm;56835;52.198;4.826;2023-06-10T00:35:25;50.86;49.51;51.99;;
66458;Laerm;56835;52.198;4.826;2023-06-10T00:35:35;50.84;49.88;52.18;;
66458;Laerm;56835;52.198;4.826;2023-06-10T00:35:45;50.88;49.50;52.26;;
66458;Laerm;56835;52.198;4.826;2023-06-10T00:35:56;50.86;49.91;52.07;;
66458;Laerm;56835;52.198;4.826;2023-06-10T00:36:06;50.92;49.72;52.15;;
66458;Laerm;56835;52.198;4.826;2023-06-10T00:36:16;50.91;49.57;51.97;;
66458;Laerm;56835;52.198;4.826;2023-06-10T00:36:26;50.87;49.54;52.13;;
66458;Laerm;56835;52.198;4.826;2023-06-10T00:36:37;50.91;49.62;52.09;;
66458;Laerm;56835;52.198;4.826;2023-06-10T00:36:47;50.95;49.81;52.11;;
66458;Laerm;56835;52.198;4.826;2023-06-10T00:36:57;50.88;49.07;52.57;;
66458;Laerm;56835;52.198;4.826;2023-06-10T00:37:07;50.93;49.32;51.98;;
66458;Laerm;56835;52.198;4.826;2023-06-10T00:37:18;50.92;49.77;52.53;;
66458;Laerm;56835;52.198;4.826;2023-06-10T00:37:28;50.92;49.57;52.28;;
66458;Laerm;56835;52.198;4.826;2023-06-10T00:37:39;50.91;49.72;51.98;;
66458;Laerm;56835;52.198;4.826;2023-06-10T00:37:49;50.91;49.74;52.05;;
66458;Laerm;56835;52.198;4.826;2023-06-10T00:37:59;50.94;49.60;52.11;;
66458;Laerm;56835;52.198;4.826;2023-06-10T00:38:09;50.97;49.86;51.95;;
66458;Laerm;56835;52.198;4.826;2023-06-10T00:38:20;50.95;49.99;52.02;;
66458;Laerm;56835;52.198;4.826;2023-06-10T00:38:30;50.93;49.84;52.00;;
66458;Laerm;56835;52.198;4.826;2023-06-10T00:38:41;50.95;49.68;52.26;;
66458;Laerm;56835;52.198;4.826;2023-06-10T00:38:52;50.95;49.50;52.32;;
66458;Laerm;56835;52.198;4.826;2023-06-10T00:39:02;50.93;49.68;52.20;;
66458;Laerm;56835;52.198;4.826;2023-06-10T00:39:14;50.92;49.66;52.07;;
66458;Laerm;56835;52.198;4.826;2023-06-10T00:39:24;50.96;49.48;52.45;;
66458;Laerm;56835;52.198;4.826;2023-06-10T00:39:34;50.91;49.56;52.18;;
66458;Laerm;56835;52.198;4.826;2023-06-10T00:39:45;50.92;49.58;52.40;;
66458;Laerm;56835;52.198;4.826;2023-06-10T00:39:55;50.92;49.69;52.08;;
66458;Laerm;56835;52.198;4.826;2023-06-10T00:40:05;50.94;49.60;52.03;;
66458;Laerm;56835;52.198;4.826;2023-06-10T00:40:16;50.91;49.62;52.09;;
66458;Laerm;56835;52.198;4.826;2023-06-10T00:40:26;50.92;49.67;52.11;;
66458;Laerm;56835;52.198;4.826;2023-06-10T00:40:39;50.97;49.68;52.08;;
66458;Laerm;56835;52.198;4.826;2023-06-10T00:40:50;50.93;49.66;52.28;;
66458;Laerm;56835;52.198;4.826;2023-06-10T00:41:01;50.89;49.60;52.00;;
66458;Laerm;56835;52.198;4.826;2023-06-10T00:41:12;50.91;49.41;51.88;;
66458;Laerm;56835;52.198;4.826;2023-06-10T00:41:22;50.98;49.40;51.93;;
66458;Laerm;56835;52.198;4.826;2023-06-10T00:41:32;50.94;49.60;52.12;;
66458;Laerm;56835;52.198;4.826;2023-06-10T00:41:44;50.90;49.60;52.01;;
66458;Laerm;56835;52.198;4.826;2023-06-10T00:41:54;50.97;49.58;52.21;;
66458;Laerm;56835;52.198;4.826;2023-06-10T00:42:05;50.90;49.63;52.01;;
66458;Laerm;56835;52.198;4.826;2023-06-10T00:42:17;50.89;49.45;52.23;;
66458;Laerm;56835;52.198;4.826;2023-06-10T00:42:27;50.93;49.79;52.36;;
66458;Laerm;56835;52.198;4.826;2023-06-10T00:42:37;50.96;49.56;52.35;;
66458;Laerm;56835;52.198;4.826;2023-06-10T00:42:47;50.97;49.89;52.17;;
66458;Laerm;56835;52.198;4.826;2023-06-10T00:42:58;50.93;49.73;52.10;;
66458;Laerm;56835;52.198;4.826;2023-06-10T00:43:08;51.00;49.63;52.48;;
66458;Laerm;56835;52.198;4.826;2023-06-10T00:43:18;50.95;49.60;52.15;;
66458;Laerm;56835;52.198;4.826;2023-06-10T00:43:29;50.94;49.79;52.61;;
66458;Laerm;56835;52.198;4.826;2023-06-10T00:43:39;50.92;49.61;51.96;;
66458;Laerm;56835;52.198;4.826;2023-06-10T00:43:49;50.95;49.56;52.07;;
66458;Laerm;56835;52.198;4.826;2023-06-10T00:43:59;50.95;49.78;52.08;;
66458;Laerm;56835;52.198;4.826;2023-06-10T00:44:10;50.98;49.78;52.03;;
66458;Laerm;56835;52.198;4.826;2023-06-10T00:44:20;50.95;49.58;52.11;;
66458;Laerm;56835;52.198;4.826;2023-06-10T00:44:30;50.96;49.79;52.26;;
66458;Laerm;56835;52.198;4.826;2023-06-10T00:44:41;50.95;49.62;52.26;;
66458;Laerm;56835;52.198;4.826;2023-06-10T00:44:51;50.96;49.66;52.27;;
66458;Laerm;56835;52.198;4.826;2023-06-10T00:45:01;50.97;49.49;52.39;;
66458;Laerm;56835;52.198;4.826;2023-06-10T00:45:11;51.01;49.57;52.19;;
66458;Laerm;56835;52.198;4.826;2023-06-10T00:45:22;50.98;49.40;52.20;;
66458;Laerm;56835;52.198;4.826;2023-06-10T00:45:32;51.02;49.63;52.08;;
66458;Laerm;56835;52.198;4.826;2023-06-10T00:45:42;51.02;49.61;52.50;;
66458;Laerm;56835;52.198;4.826;2023-06-10T00:45:53;50.94;49.97;51.96;;
66458;Laerm;56835;52.198;4.826;2023-06-10T00:46:03;50.96;49.59;52.24;;
66458;Laerm;56835;52.198;4.826;2023-06-10T00:46:13;50.98;49.46;52.52;;
66458;Laerm;56835;52.198;4.826;2023-06-10T00:46:25;50.98;49.71;52.21;;
66458;Laerm;56835;52.198;4.826;2023-06-10T00:46:37;50.99;49.78;52.12;;
66458;Laerm;56835;52.198;4.826;2023-06-10T00:46:59;50.98;49.30;51.98;;
66458;Laerm;56835;52.198;4.826;2023-06-10T00:47:10;50.97;49.61;52.40;;
66458;Laerm;56835;52.198;4.826;2023-06-10T00:47:20;51.05;49.74;52.24;;
66458;Laerm;56835;52.198;4.826;2023-06-10T00:47:31;50.99;49.73;52.21;;
66458;Laerm;56835;52.198;4.826;2023-06-10T00:47:41;51.04;49.89;52.12;;
66458;Laerm;56835;52.198;4.826;2023-06-10T00:47:52;51.01;49.86;51.92;;
66458;Laerm;56835;52.198;4.826;2023-06-10T00:48:02;50.99;49.66;52.35;;
66458;Laerm;56835;52.198;4.826;2023-06-10T00:48:13;50.98;49.75;52.36;;
66458;Laerm;56835;52.198;4.826;2023-06-10T00:48:23;50.96;49.21;52.20;;
66458;Laerm;56835;52.198;4.826;2023-06-10T00:48:34;50.99;49.75;52.57;;
66458;Laerm;56835;52.198;4.826;2023-06-10T00:48:45;51.01;49.64;52.61;;
66458;Laerm;56835;52.198;4.826;2023-06-10T00:48:55;51.03;49.56;52.36;;
66458;Laerm;56835;52.198;4.826;2023-06-10T00:49:06;51.02;49.77;52.27;;
66458;Laerm;56835;52.198;4.826;2023-06-10T00:49:16;50.98;49.75;52.34;;
66458;Laerm;56835;52.198;4.826;2023-06-10T00:49:27;51.01;49.94;52.27;;
66458;Laerm;56835;52.198;4.826;2023-06-10T00:49:37;51.00;49.55;52.30;;
66458;Laerm;56835;52.198;4.826;2023-06-10T00:49:48;51.05;49.88;52.20;;
66458;Laerm;56835;52.198;4.826;2023-06-10T00:49:59;51.00;49.54;52.29;;
66458;Laerm;56835;52.198;4.826;2023-06-10T00:50:09;51.03;49.87;52.37;;
66458;Laerm;56835;52.198;4.826;2023-06-10T00:50:20;51.03;49.76;52.63;;
66458;Laerm;56835;52.198;4.826;2023-06-10T00:50:31;51.11;49.92;52.34;;
66458;Laerm;56835;52.198;4.826;2023-06-10T00:50:41;51.05;49.73;52.30;;
66458;Laerm;56835;52.198;4.826;2023-06-10T00:50:51;51.04;49.76;52.03;;
66458;Laerm;56835;52.198;4.826;2023-06-10T00:51:03;50.97;49.38;52.25;;
66458;Laerm;56835;52.198;4.826;2023-06-10T00:51:15;51.03;49.72;52.04;;
66458;Laerm;56835;52.198;4.826;2023-06-10T00:51:26;51.01;49.64;52.44;;
66458;Laerm;56835;52.198;4.826;2023-06-10T00:51:36;50.96;49.78;52.12;;
66458;Laerm;56835;52.198;4.826;2023-06-10T00:51:47;51.02;49.88;52.18;;
66458;Laerm;56835;52.198;4.826;2023-06-10T00:51:57;51.01;49.08;52.27;;
66458;Laerm;56835;52.198;4.826;2023-06-10T00:52:08;51.07;49.59;52.20;;
66458;Laerm;56835;52.198;4.826;2023-06-10T00:52:20;51.01;49.86;52.32;;
66458;Laerm;56835;52.198;4.826;2023-06-10T00:52:32;50.96;49.83;52.18;;
66458;Laerm;56835;52.198;4.826;2023-06-10T00:52:43;51.03;49.26;51.98;;
66458;Laerm;56835;52.198;4.826;2023-06-10T00:52:56;51.05;49.46;52.11;;
66458;Laerm;56835;52.198;4.826;2023-06-10T00:53:07;50.99;49.77;52.23;;
66458;Laerm;56835;52.198;4.826;2023-06-10T00:53:17;51.05;49.87;52.23;;
66458;Laerm;56835;52.198;4.826;2023-06-10T00:53:28;51.04;49.88;52.10;;
66458;Laerm;56835;52.198;4.826;2023-06-10T00:53:41;51.05;49.67;52.29;;
66458;Laerm;56835;52.198;4.826;2023-06-10T00:53:52;51.03;49.94;52.21;;
66458;Laerm;56835;52.198;4.826;2023-06-10T00:54:02;50.96;49.48;52.34;;
66458;Laerm;56835;52.198;4.826;2023-06-10T00:54:13;51.00;49.73;52.26;;
66458;Laerm;56835;52.198;4.826;2023-06-10T00:54:23;50.98;49.78;52.48;;
66458;Laerm;56835;52.198;4.826;2023-06-10T00:54:34;51.02;49.92;52.38;;
66458;Laerm;56835;52.198;4.826;2023-06-10T00:54:44;51.00;49.68;52.01;;
66458;Laerm;56835;52.198;4.826;2023-06-10T00:54:54;51.01;49.81;52.23;;
66458;Laerm;56835;52.198;4.826;2023-06-10T00:55:05;51.03;49.66;52.49;;
66458;Laerm;56835;52.198;4.826;2023-06-10T00:55:16;51.01;49.66;52.27;;
66458;Laerm;56835;52.198;4.826;2023-06-10T00:55:26;50.99;49.63;52.09;;
66458;Laerm;56835;52.198;4.826;2023-06-10T00:55:37;50.95;49.60;52.23;;
66458;Laerm;56835;52.198;4.826;2023-06-10T00:55:47;51.00;49.50;52.33;;
66458;Laerm;56835;52.198;4.826;2023-06-10T00:55:58;51.01;49.55;52.76;;
66458;Laerm;56835;52.198;4.826;2023-06-10T00:56:08;51.01;49.76;52.12;;
66458;Laerm;56835;52.198;4.826;2023-06-10T00:56:19;51.01;49.85;52.30;;
66458;Laerm;56835;52.198;4.826;2023-06-10T00:56:31;51.04;49.78;52.31;;
66458;Laerm;56835;52.198;4.826;2023-06-10T00:56:42;51.04;49.79;52.36;;
66458;Laerm;56835;52.198;4.826;2023-06-10T00:56:53;51.05;49.81;52.25;;
66458;Laerm;56835;52.198;4.826;2023-06-10T00:57:03;50.97;49.04;52.45;;
66458;Laerm;56835;52.198;4.826;2023-06-10T00:57:14;50.97;49.52;52.14;;
66458;Laerm;56835;52.198;4.826;2023-06-10T00:57:24;50.98;49.82;52.00;;
66458;Laerm;56835;52.198;4.826;2023-06-10T00:57:35;50.97;49.85;51.95;;
66458;Laerm;56835;52.198;4.826;2023-06-10T00:57:46;51.06;49.58;52.23;;
66458;Laerm;56835;52.198;4.826;2023-06-10T00:57:58;51.04;49.76;52.37;;
66458;Laerm;56835;52.198;4.826;2023-06-10T00:58:09;51.03;49.74;52.19;;
66458;Laerm;56835;52.198;4.826;2023-06-10T00:58:20;50.86;49.56;52.22;;
66458;Laerm;56835;52.198;4.826;2023-06-10T00:58:31;50.96;49.71;52.08;;
66458;Laerm;56835;52.198;4.826;2023-06-10T00:58:41;51.00;49.84;52.06;;
66458;Laerm;56835;52.198;4.826;2023-06-10T00:58:52;50.94;49.79;52.20;;
66458;Laerm;56835;52.198;4.826;2023-06-10T00:59:02;51.00;49.65;52.10;;
66458;Laerm;56835;52.198;4.826;2023-06-10T00:59:12;50.98;49.60;52.39;;
66458;Laerm;56835;52.198;4.826;2023-06-10T00:59:24;50.99;49.73;52.06;;
66458;Laerm;56835;52.198;4.826;2023-06-10T00:59:35;50.97;49.36;52.42;;
66458;Laerm;56835;52.198;4.826;2023-06-10T00:59:47;50.97;49.74;52.09;;
66458;Laerm;56835;52.198;4.826;2023-06-10T00:59:58;50.98;49.57;52.13;;
66458;Laerm;56835;52.198;4.826;2023-06-10T01:00:08;51.00;49.93;52.56;;
66458;Laerm;56835;52.198;4.826;2023-06-10T01:00:20;50.96;49.68;52.07;;
66458;Laerm;56835;52.198;4.826;2023-06-10T01:00:30;51.00;49.77;52.25;;
66458;Laerm;56835;52.198;4.826;2023-06-10T01:00:40;50.93;49.75;52.81;;